Time;durP1;ratioP1;P1;durP2;ratioP2;P2;SDS_P1;SDS_P2;PMS_P1;PMS_P2;Temp;Humidity;BMP_temperature;BMP_pressure;BME280_temperature;BME280_humidity;BME280_pressure;Samples;Min_cycle;Max_cycle;Signal;HPM_P1;HPM_P2
2022/01/17 00:01:43;;;;;;;9.77;2.53;;;;;;;6.35;100.00;102671.34;4999798;28;20196;-78
2022/01/17 00:04:10;;;;;;;11.57;2.93;;;;;;;5.20;100.00;102505.72;4999568;28;20880;-77
2022/01/17 00:06:36;;;;;;;13.40;2.40;;;;;;;6.31;100.00;102651.25;5000918;28;20690;-76
2022/01/17 00:09:02;;;;;;;14.90;3.20;;;;;;;6.32;100.00;102655.59;5000835;28;20464;-73
2022/01/17 00:11:27;;;;;;;22.33;3.60;;;;;;;6.24;100.00;102647.38;4998884;28;20456;-76
2022/01/17 00:13:53;;;;;;;14.17;2.53;;;;;;;6.36;100.00;102675.69;5000403;28;20239;-75
2022/01/17 00:16:29;;;;;;;12.33;2.60;;;;;;;6.37;100.00;102650.75;5001189;28;20299;-76
2022/01/17 00:19:18;;;;;;;11.97;2.50;;;;;;;5.90;100.00;102604.81;5000765;28;20183;-75
2022/01/17 00:21:43;;;;;;;10.37;2.10;;;;;;;5.78;100.00;102572.03;5001276;28;20432;-77
2022/01/17 00:24:09;;;;;;;15.17;2.83;;;;;;;5.83;100.00;102603.63;4999865;28;20456;-75
2022/01/17 00:26:35;;;;;;;14.13;3.90;;;;;;;5.68;100.00;102591.56;5001361;28;20177;-77
2022/01/17 00:29:00;;;;;;;14.00;2.93;;;;;;;5.07;100.00;102506.84;5001506;28;20187;-76
2022/01/17 00:31:25;;;;;;;14.50;2.57;;;;;;;6.11;100.00;102685.69;4999373;28;20192;-75
2022/01/17 00:33:51;;;;;;;16.33;4.40;;;;;;;5.74;100.00;102615.03;4999768;28;20201;-76
2022/01/17 00:36:16;;;;;;;13.50;2.83;;;;;;;6.07;100.00;102676.25;4999386;28;20276;-75
2022/01/17 00:38:42;;;;;;;19.63;3.50;;;;;;;5.48;100.00;102571.88;5000465;28;20204;-75
2022/01/17 00:41:07;;;;;;;15.60;2.73;;;;;;;6.06;100.00;102644.41;5000571;28;21134;-76
2022/01/17 00:43:34;;;;;;;14.63;3.37;;;;;;;3.96;100.00;102341.91;5002325;28;20205;-75
2022/01/17 00:46:00;;;;;;;11.10;2.50;;;;;;;4.67;100.00;102447.03;4999243;28;20235;-77
2022/01/17 00:48:25;;;;;;;12.67;3.00;;;;;;;5.40;100.00;102546.72;4987975;28;20524;-77
2022/01/17 00:50:50;;;;;;;20.53;2.70;;;;;;;5.89;100.00;102619.97;5001302;28;20200;-74
2022/01/17 00:53:16;;;;;;;13.37;2.80;;;;;;;5.39;100.00;102549.50;4986179;28;20206;-74
2022/01/17 00:55:41;;;;;;;12.83;3.20;;;;;;;5.73;100.00;102631.97;4999129;28;20202;-73
2022/01/17 00:58:07;;;;;;;13.20;2.73;;;;;;;5.94;100.00;102659.56;4999096;28;20185;-75
2022/01/17 01:00:33;;;;;;;9.77;2.83;;;;;;;6.22;100.00;102691.97;5001486;28;20268;-75
2022/01/17 01:02:58;;;;;;;15.30;3.20;;;;;;;5.43;100.00;102557.09;5000894;28;20216;-75
2022/01/17 01:05:24;;;;;;;24.80;3.80;;;;;;;5.18;100.00;102510.34;4981482;28;20504;-75
2022/01/17 01:07:51;;;;;;;15.87;2.70;;;;;;;5.40;100.00;102533.41;4998277;28;20569;-75
2022/01/17 01:10:16;;;;;;;9.63;2.57;;;;;;;5.38;100.00;102523.84;4999409;28;20188;-74
2022/01/17 01:12:47;;;;;;;10.33;2.93;;;;;;;6.21;100.00;102663.63;4997519;28;20428;-76
2022/01/17 01:15:19;;;;;;;13.90;2.67;;;;;;;5.85;100.00;102613.19;5001280;28;20461;-74
2022/01/17 01:28:29;;;;;;;19.17;3.87;;;;;;;6.09;100.00;102668.16;4998773;28;20842;-76
2022/01/17 01:30:56;;;;;;;16.33;3.70;;;;;;;5.76;100.00;102619.28;5000517;28;20428;-75
2022/01/17 01:33:27;;;;;;;18.70;3.60;;;;;;;6.12;100.00;102665.22;4997124;28;20453;-76
2022/01/17 01:36:00;;;;;;;21.00;3.80;;;;;;;5.46;100.00;102552.50;4999290;28;20456;-76
2022/01/17 01:38:25;;;;;;;12.80;3.23;;;;;;;5.98;100.00;102670.81;4988837;28;20444;-76
2022/01/17 01:40:51;;;;;;;11.93;2.80;;;;;;;5.71;100.00;102604.63;4999739;28;20431;-75
2022/01/17 01:43:16;;;;;;;14.20;3.23;;;;;;;5.83;100.00;102622.28;5000729;28;20670;-74
2022/01/17 01:45:49;;;;;;;13.07;3.40;;;;;;;5.34;100.00;102554.34;4999030;28;20260;-74
2022/01/17 01:48:19;;;;;;;11.30;2.77;;;;;;;5.94;100.00;102648.09;4998780;28;20262;-74
2022/01/17 01:50:45;;;;;;;14.20;3.20;;;;;;;5.31;100.00;102538.63;4997816;28;20902;-75
2022/01/17 01:53:10;;;;;;;26.73;4.43;;;;;;;5.96;100.00;102675.41;5001501;28;20506;-74
2022/01/17 01:55:36;;;;;;;19.10;3.40;;;;;;;5.99;100.00;102670.72;5001723;28;20464;-76
2022/01/17 01:58:01;;;;;;;30.10;4.03;;;;;;;5.50;100.00;102592.09;5001009;28;20239;-74
2022/01/17 02:00:26;;;;;;;15.37;3.20;;;;;;;5.60;100.00;102616.13;5001600;28;20558;-74
2022/01/17 02:02:52;;;;;;;22.60;3.20;;;;;;;5.25;100.00;102555.09;4998868;28;20315;-74
2022/01/17 02:05:17;;;;;;;15.27;3.60;;;;;;;5.53;100.00;102598.97;4999617;28;20184;-76
2022/01/17 02:07:45;;;;;;;19.60;3.20;;;;;;;5.22;100.00;102556.16;4999269;28;20217;-75
2022/01/17 02:10:11;;;;;;;16.50;3.70;;;;;;;5.12;100.00;102556.06;4984264;28;20791;-75
2022/01/17 02:12:36;;;;;;;18.53;3.93;;;;;;;4.66;100.00;102506.47;4998674;28;20432;-75
2022/01/17 02:15:03;;;;;;;16.27;3.47;;;;;;;5.84;100.00;102695.88;4998121;28;20431;-74
2022/01/17 02:17:32;;;;;;;8.87;3.10;;;;;;;5.91;100.00;102691.75;4997891;28;20189;-76
2022/01/17 02:20:05;;;;;;;22.60;3.83;;;;;;;5.72;100.00;102681.72;5005325;28;20420;-76
2022/01/17 02:22:31;;;;;;;9.30;3.43;;;;;;;5.30;100.00;102598.97;5003727;28;20443;-75
2022/01/17 02:24:57;;;;;;;15.00;2.80;;;;;;;5.30;100.00;102587.50;5004643;28;20470;-75
2022/01/17 02:27:23;;;;;;;18.03;2.77;;;;;;;5.79;100.00;102676.78;5003999;28;20460;-75
2022/01/17 02:29:48;;;;;;;20.30;3.77;;;;;;;5.20;100.00;102563.41;5004387;28;20564;-74
2022/01/17 02:32:13;;;;;;;16.67;3.83;;;;;;;5.02;100.00;102524.97;5002445;28;20189;-75
2022/01/17 02:34:41;;;;;;;13.63;3.63;;;;;;;5.84;100.00;102680.75;4984680;28;20310;-77
2022/01/17 02:37:06;;;;;;;14.00;3.20;;;;;;;5.46;100.00;102605.75;5001228;28;20639;-73
2022/01/17 02:39:32;;;;;;;22.00;4.10;;;;;;;5.78;100.00;102677.72;5001062;28;20439;-75
2022/01/17 02:42:00;;;;;;;18.73;3.03;;;;;;;5.92;100.00;102649.97;5001786;28;20233;-76
2022/01/17 02:44:26;;;;;;;11.80;2.50;;;;;;;5.13;100.00;102520.50;5003504;28;20204;-76
2022/01/17 02:46:51;;;;;;;19.20;3.80;;;;;;;5.51;100.00;102593.75;5002786;28;20475;-75
2022/01/17 02:49:16;;;;;;;8.40;2.27;;;;;;;4.47;100.00;102456.56;5002078;28;20184;-75
2022/01/17 02:51:44;;;;;;;16.43;3.10;;;;;;;5.28;100.00;102573.47;5000402;28;20193;-75
2022/01/17 02:54:09;;;;;;;15.97;4.20;;;;;;;5.73;100.00;102679.88;5002077;28;20285;-75
2022/01/17 02:56:34;;;;;;;17.23;3.30;;;;;;;5.65;100.00;102659.22;5002018;28;20546;-74
2022/01/17 02:59:00;;;;;;;19.80;3.20;;;;;;;5.70;100.00;102685.47;5002892;28;20216;-75
2022/01/17 03:01:27;;;;;;;23.63;3.67;;;;;;;5.12;100.00;102582.66;5003715;28;20278;-74
2022/01/17 03:03:54;;;;;;;15.50;2.77;;;;;;;5.31;100.00;102589.19;5003027;28;20259;-75
2022/01/17 03:06:19;;;;;;;23.53;2.93;;;;;;;5.00;100.00;102567.63;5002686;28;20498;-75
2022/01/17 03:08:45;;;;;;;13.53;3.20;;;;;;;5.82;100.00;102676.53;5003634;28;20444;-74
2022/01/17 03:11:14;;;;;;;18.70;3.60;;;;;;;5.41;100.00;102646.88;5002026;28;20189;-76
2022/01/17 03:13:40;;;;;;;20.13;3.40;;;;;;;4.92;100.00;102573.56;5002889;28;20449;-75
2022/01/17 03:16:12;;;;;;;23.17;4.00;;;;;;;5.55;100.00;102679.53;5000869;28;20493;-74
2022/01/17 03:18:41;;;;;;;19.30;3.53;;;;;;;4.61;100.00;102489.19;5002592;28;20919;-75
2022/01/17 03:21:09;;;;;;;14.67;3.17;;;;;;;5.82;100.00;102682.69;4986588;28;20436;-76
2022/01/17 03:23:36;;;;;;;16.87;2.97;;;;;;;5.78;100.00;102649.25;5012880;23;21067;-74
2022/01/17 03:26:02;;;;;;;21.60;4.13;;;;;;;5.84;100.00;102666.56;5000224;28;20427;-75
2022/01/17 03:28:28;;;;;;;13.33;2.97;;;;;;;5.47;100.00;102626.94;5016845;28;20423;-74
2022/01/17 03:30:53;;;;;;;15.87;3.20;;;;;;;5.60;100.00;102648.09;5000285;28;21151;-75
2022/01/17 03:33:19;;;;;;;18.20;4.10;;;;;;;5.88;100.00;102671.53;5011095;28;20211;-75
2022/01/17 03:35:46;;;;;;;18.90;2.87;;;;;;;4.64;100.00;102503.09;4988260;28;20572;-74
2022/01/17 03:38:14;;;;;;;12.47;3.20;;;;;;;5.98;100.00;102666.34;5002075;28;20566;-75
2022/01/17 03:40:41;;;;;;;13.13;2.73;;;;;;;5.29;100.00;102552.03;5002290;28;20503;-76
2022/01/17 03:43:08;;;;;;;28.17;3.43;;;;;;;5.41;100.00;102590.16;4999911;28;20462;-75
2022/01/17 03:45:34;;;;;;;13.47;3.23;;;;;;;5.48;100.00;102586.03;4986377;28;20843;-76
2022/01/17 03:48:00;;;;;;;19.83;3.50;;;;;;;5.51;100.00;102614.22;5001111;28;20468;-75
2022/01/17 03:50:27;;;;;;;19.20;3.60;;;;;;;5.18;100.00;102555.56;5001204;28;20252;-72
2022/01/17 03:52:52;;;;;;;17.17;3.23;;;;;;;5.08;100.00;102541.28;5001405;28;20199;-74
2022/01/17 03:55:22;;;;;;;13.70;3.03;;;;;;;5.89;100.00;102657.25;5001387;28;20463;-73
2022/01/17 03:57:48;;;;;;;25.67;3.73;;;;;;;5.77;100.00;102660.06;5001344;28;20661;-73
2022/01/17 04:00:43;;;;;;;12.63;3.30;;;;;;;5.99;100.00;102688.50;5001731;28;20421;-73
2022/01/17 04:03:10;;;;;;;11.60;2.83;;;;;;;5.88;100.00;102674.22;5000663;28;20499;-73
2022/01/17 04:05:36;;;;;;;14.83;3.10;;;;;;;6.12;100.00;102699.88;5000634;28;20417;-73
2022/01/17 04:08:02;;;;;;;11.33;2.90;;;;;;;6.07;100.00;102686.06;5001278;28;20420;-73
2022/01/17 04:10:27;;;;;;;11.70;3.07;;;;;;;5.69;100.00;102618.06;5000122;28;20984;-72
2022/01/17 04:12:55;;;;;;;15.63;3.17;;;;;;;5.38;100.00;102550.47;5000034;28;20420;-74
2022/01/17 04:15:21;;;;;;;14.30;3.47;;;;;;;5.41;100.00;102563.56;4999558;28;20298;-74
2022/01/17 04:17:46;;;;;;;13.40;2.60;;;;;;;4.24;100.00;102399.91;5000001;28;20440;-74
2022/01/17 04:20:19;;;;;;;19.17;3.27;;;;;;;5.68;100.00;102615.53;5001851;28;20196;-73
2022/01/17 04:22:51;;;;;;;12.53;2.70;;;;;;;6.06;100.00;102695.88;5000954;28;20261;-72
2022/01/17 04:25:18;;;;;;;18.90;3.60;;;;;;;5.79;100.00;102631.50;5002802;28;20468;-73
2022/01/17 04:27:43;;;;;;;13.00;3.53;;;;;;;5.43;100.00;102575.75;4999404;28;20433;-73
2022/01/17 04:30:09;;;;;;;15.80;2.67;;;;;;;6.00;100.00;102651.09;5000520;28;20436;-73
2022/01/17 04:32:34;;;;;;;19.20;3.40;;;;;;;6.00;100.00;102666.22;5001562;28;20195;-72
2022/01/17 04:35:00;;;;;;;22.73;3.50;;;;;;;6.23;100.00;102685.69;4999781;28;20216;-73
2022/01/17 04:37:25;;;;;;;16.03;3.27;;;;;;;5.67;100.00;102612.03;5001835;28;20227;-72
2022/01/17 04:39:51;;;;;;;18.13;4.23;;;;;;;5.32;100.00;102548.28;5000296;28;20188;-74
2022/01/17 04:42:23;;;;;;;16.70;3.50;;;;;;;5.62;100.00;102592.91;5001269;28;20186;-74
2022/01/17 04:45:07;;;;;;;17.67;3.20;;;;;;;5.70;100.00;102598.47;4999946;28;20209;-73
2022/01/17 04:47:34;;;;;;;16.73;3.00;;;;;;;6.13;100.00;102669.56;5000351;28;20433;-73
2022/01/17 04:49:59;;;;;;;17.00;4.30;;;;;;;6.11;100.00;102667.06;4999780;28;21002;-73
2022/01/17 04:52:26;;;;;;;16.57;4.23;;;;;;;5.79;100.00;102620.84;4982149;28;20441;-73
2022/01/17 04:54:54;;;;;;;15.50;4.20;;;;;;;5.55;100.00;102597.84;4986488;28;20255;-73
2022/01/17 04:57:21;;;;;;;21.00;3.30;;;;;;;4.66;100.00;102441.84;5000403;28;20514;-73
2022/01/17 04:59:47;;;;;;;15.77;3.50;;;;;;;5.39;100.00;102542.38;4999295;28;20539;-73
2022/01/17 05:02:13;;;;;;;19.33;4.10;;;;;;;6.21;100.00;102687.63;4999734;28;20435;-72
2022/01/17 05:04:38;;;;;;;17.57;4.00;;;;;;;5.50;100.00;102549.50;5001403;28;20445;-73
2022/01/17 05:07:05;;;;;;;20.30;3.83;;;;;;;6.07;100.00;102638.09;4999089;28;20190;-74
2022/01/17 05:09:31;;;;;;;22.13;4.73;;;;;;;6.18;100.00;102666.56;5000975;28;20192;-73
2022/01/17 05:11:56;;;;;;;22.70;4.83;;;;;;;5.58;100.00;102560.38;4999418;28;20912;-72
2022/01/17 05:14:21;;;;;;;18.10;3.70;;;;;;;4.84;100.00;102469.63;4997087;28;20232;-73
2022/01/17 05:16:56;;;;;;;13.63;3.60;;;;;;;6.04;100.00;102627.69;5002160;28;20215;-74
2022/01/17 05:22:06;;;;;;;26.60;4.20;;;;;;;6.26;100.00;102680.09;4998855;28;20463;-73
2022/01/17 05:24:31;;;;;;;18.23;4.33;;;;;;;6.18;100.00;102659.41;4999431;28;20463;-72
2022/01/17 05:26:56;;;;;;;20.40;4.47;;;;;;;5.92;100.00;102616.19;4999103;28;20182;-73
2022/01/17 05:29:22;;;;;;;21.87;5.47;;;;;;;6.12;100.00;102649.25;5000312;28;20272;-73
2022/01/17 05:31:48;;;;;;;19.27;4.00;;;;;;;5.83;100.00;102600.97;4998895;28;20219;-73
2022/01/17 05:34:13;;;;;;;22.17;3.80;;;;;;;6.21;100.00;102674.28;5001013;28;20264;-73
2022/01/17 05:36:39;;;;;;;18.30;4.70;;;;;;;5.24;100.00;102516.16;4998357;28;20475;-75
2022/01/17 05:39:05;;;;;;;21.97;4.70;;;;;;;6.27;100.00;102666.63;4983181;28;20189;-74
2022/01/17 05:41:30;;;;;;;17.87;4.40;;;;;;;6.19;100.00;102673.56;4997193;28;20648;-73
2022/01/17 05:43:55;;;;;;;22.87;5.07;;;;;;;6.23;100.00;102661.69;4998770;28;20217;-73
2022/01/17 05:46:21;;;;;;;20.23;5.30;;;;;;;6.04;100.00;102633.88;5000056;28;20220;-73
2022/01/17 05:48:46;;;;;;;20.90;3.90;;;;;;;5.79;100.00;102612.84;4997796;28;20188;-72
2022/01/17 05:51:12;;;;;;;20.90;4.60;;;;;;;5.29;100.00;102503.31;4998874;28;20197;-73
2022/01/17 05:53:37;;;;;;;25.53;4.50;;;;;;;5.60;100.00;102552.25;4998779;28;20201;-71
2022/01/17 05:56:03;;;;;;;18.37;4.37;;;;;;;6.18;100.00;102629.25;4997776;28;20213;-72
2022/01/17 05:58:28;;;;;;;22.93;4.37;;;;;;;5.97;100.00;102605.22;5000083;28;20239;-73
2022/01/17 06:00:54;;;;;;;25.20;4.93;;;;;;;6.14;100.00;102625.16;4999079;28;20622;-73
2022/01/17 06:03:19;;;;;;;27.70;5.43;;;;;;;5.81;100.00;102592.25;4999491;28;20209;-72
2022/01/17 06:05:45;;;;;;;23.33;4.50;;;;;;;5.85;100.00;102597.22;4999735;28;20204;-71
2022/01/17 06:08:11;;;;;;;25.70;5.90;;;;;;;5.83;100.00;102571.69;4999111;28;20201;-73
2022/01/17 06:10:38;;;;;;;26.93;5.47;;;;;;;6.39;100.00;102643.44;4980634;28;20860;-73
2022/01/17 06:13:03;;;;;;;27.27;4.97;;;;;;;6.17;100.00;102638.22;4996044;28;20185;-72
2022/01/17 06:15:29;;;;;;;20.57;4.87;;;;;;;5.87;100.00;102581.09;4984820;28;20480;-71
2022/01/17 06:17:54;;;;;;;27.20;4.77;;;;;;;5.85;100.00;102591.06;4998032;28;20228;-72
2022/01/17 06:20:20;;;;;;;31.97;4.80;;;;;;;6.37;100.00;102672.06;4998635;28;20192;-71
2022/01/17 06:22:45;;;;;;;18.20;4.77;;;;;;;5.82;100.00;102583.31;4999634;28;20684;-72
2022/01/17 06:25:12;;;;;;;25.00;4.60;;;;;;;5.99;100.00;102573.94;4998633;28;20240;-72
2022/01/17 06:27:37;;;;;;;25.03;4.77;;;;;;;6.42;100.00;102653.88;4998900;28;20265;-71
2022/01/17 06:30:04;;;;;;;29.77;5.63;;;;;;;5.91;100.00;102553.25;4997956;28;20864;-73
2022/01/17 06:32:30;;;;;;;32.93;5.77;;;;;;;6.40;100.00;102647.81;4998805;28;20185;-72
2022/01/17 06:34:56;;;;;;;24.50;5.20;;;;;;;6.36;100.00;102625.06;4999046;28;20458;-72
2022/01/17 06:37:22;;;;;;;23.30;5.70;;;;;;;6.51;100.00;102663.78;4997693;28;20439;-72
2022/01/17 06:39:47;;;;;;;27.07;5.47;;;;;;;6.36;100.00;102630.38;4985510;28;20420;-72
2022/01/17 06:42:13;;;;;;;23.87;5.17;;;;;;;6.44;100.00;102643.91;4998123;28;20184;-73
2022/01/17 06:44:38;;;;;;;21.93;5.00;;;;;;;6.42;100.00;102664.56;4998152;28;20201;-71
2022/01/17 06:47:04;;;;;;;27.20;5.17;;;;;;;6.47;100.00;102682.81;4998871;28;20186;-72
2022/01/17 06:49:29;;;;;;;21.90;4.53;;;;;;;5.75;100.00;102566.13;4999387;28;20204;-71
2022/01/17 06:51:55;;;;;;;27.53;5.13;;;;;;;6.40;100.00;102689.63;4983800;28;20242;-71
2022/01/17 06:54:20;;;;;;;34.70;5.73;;;;;;;6.47;100.00;102694.31;4997178;28;20204;-72
2022/01/17 06:56:45;;;;;;;30.20;4.90;;;;;;;6.29;100.00;102675.34;4998793;28;20558;-73
2022/01/17 06:59:12;;;;;;;26.27;4.97;;;;;;;6.61;100.00;102735.84;4996148;28;20925;-72
2022/01/17 07:01:38;;;;;;;25.73;4.63;;;;;;;6.60;100.00;102754.66;4998479;28;20189;-73
2022/01/17 07:04:04;;;;;;;33.07;4.87;;;;;;;6.68;100.00;102760.19;4997666;28;20497;-72
2022/01/17 07:06:30;;;;;;;26.50;4.63;;;;;;;6.74;100.00;102731.19;5002549;28;20420;-72
2022/01/17 07:08:55;;;;;;;22.80;4.90;;;;;;;6.75;100.00;102714.22;4988300;28;20435;-73
2022/01/17 07:11:21;;;;;;;24.50;5.87;;;;;;;6.79;100.00;102701.47;5001491;28;20188;-73
2022/01/17 07:13:47;;;;;;;18.70;4.53;;;;;;;6.81;100.00;102717.34;4984335;28;20229;-72
2022/01/17 07:16:12;;;;;;;29.77;7.03;;;;;;;6.80;100.00;102689.84;5001285;28;20456;-72
2022/01/17 07:18:38;;;;;;;42.40;7.60;;;;;;;6.38;100.00;102616.94;5002588;28;20583;-72
2022/01/17 07:21:03;;;;;;;23.83;4.83;;;;;;;6.79;100.00;102672.97;5000527;28;20271;-73
2022/01/17 07:23:29;;;;;;;23.80;5.30;;;;;;;6.43;100.00;102620.06;4999783;28;20224;-72
2022/01/17 07:25:55;;;;;;;24.83;5.40;;;;;;;6.03;100.00;102562.94;4986676;28;20186;-72
2022/01/17 07:28:20;;;;;;;31.93;5.50;;;;;;;6.85;100.00;102703.59;5004716;28;20424;-73
2022/01/17 07:30:45;;;;;;;23.47;4.90;;;;;;;7.12;100.00;102718.28;5001385;28;20292;-73
2022/01/17 07:33:11;;;;;;;25.97;4.90;;;;;;;7.10;100.00;102728.25;5001148;28;20202;-72
2022/01/17 07:35:37;;;;;;;24.87;5.40;;;;;;;7.13;100.00;102730.66;5001054;28;20286;-73
2022/01/17 07:38:04;;;;;;;32.90;5.80;;;;;;;7.13;100.00;102738.66;5000979;28;20831;-73
2022/01/17 07:40:29;;;;;;;27.00;5.10;;;;;;;6.80;100.00;102692.50;5000950;28;20185;-73
2022/01/17 07:42:55;;;;;;;29.73;5.33;;;;;;;6.84;100.00;102696.59;5000349;28;20853;-73
2022/01/17 07:45:21;;;;;;;24.70;4.93;;;;;;;6.53;100.00;102650.31;5001350;28;20185;-73
2022/01/17 07:50:21;;;;;;;46.30;6.90;;;;;;;7.09;100.00;102767.44;5002090;28;20424;-72
2022/01/17 07:52:48;;;;;;;33.20;6.30;;;;;;;7.15;100.00;102753.56;5000922;28;20955;-73
2022/01/17 07:55:14;;;;;;;28.30;5.37;;;;;;;7.13;100.00;102758.19;5001766;28;20844;-73
2022/01/17 07:57:43;;;;;;;34.17;7.10;;;;;;;6.64;100.00;102671.59;5001249;28;20500;-73
2022/01/17 08:00:12;;;;;;;34.37;6.67;;;;;;;6.94;100.00;102734.88;5000556;28;20420;-72
2022/01/17 08:02:37;;;;;;;24.90;5.30;;;;;;;6.71;100.00;102674.59;5000865;28;20437;-73
2022/01/17 08:05:04;;;;;;;43.13;6.90;;;;;;;5.71;100.00;102540.75;4988195;28;20494;-73
2022/01/17 08:07:29;;;;;;;50.17;7.30;;;;;;;7.03;100.00;102743.94;5002104;28;20185;-73
2022/01/17 08:09:55;;;;;;;34.77;6.20;;;;;;;7.15;100.00;102758.06;5002281;28;20502;-73
2022/01/17 08:12:20;;;;;;;37.47;7.50;;;;;;;7.17;100.00;102767.59;5000208;28;20438;-73
2022/01/17 08:14:46;;;;;;;35.87;8.00;;;;;;;7.15;100.00;102787.41;5000983;28;20216;-72
2022/01/17 08:17:11;;;;;;;34.70;6.20;;;;;;;7.18;100.00;102781.81;4999950;28;20212;-72
2022/01/17 08:19:37;;;;;;;40.70;6.70;;;;;;;7.13;100.00;102771.53;5002489;28;20193;-73
2022/01/17 08:22:05;;;;;;;28.67;6.60;;;;;;;6.30;100.00;102631.72;4987677;28;20181;-73
2022/01/17 08:24:30;;;;;;;38.33;7.23;;;;;;;6.68;100.00;102712.16;4999434;28;20467;-72
2022/01/17 08:26:56;;;;;;;29.43;6.97;;;;;;;7.20;100.00;102771.84;5001104;28;20424;-73
2022/01/17 08:29:25;;;;;;;32.37;6.30;;;;;;;6.37;100.00;102624.09;4999155;28;20174;-72
2022/01/17 08:31:51;;;;;;;29.87;6.00;;;;;;;7.26;100.00;102765.97;4999583;28;20186;-72
2022/01/17 08:34:17;;;;;;;51.07;6.60;;;;;;;7.27;100.00;102767.69;5000839;28;20452;-71
2022/01/17 08:36:43;;;;;;;32.30;6.97;;;;;;;7.29;100.00;102756.88;5000945;28;20467;-72
2022/01/17 08:39:10;;;;;;;36.87;7.50;;;;;;;6.92;100.00;102702.13;4999649;28;20941;-73
2022/01/17 08:41:37;;;;;;;31.13;5.77;;;;;;;7.33;100.00;102777.84;5000068;28;20416;-72
2022/01/17 08:44:02;;;;;;;40.27;6.10;;;;;;;7.07;100.00;102717.81;4998478;28;20448;-73
2022/01/17 08:46:28;;;;;;;39.83;7.77;;;;;;;7.42;100.00;102786.91;5000999;28;20427;-72
2022/01/17 08:48:53;;;;;;;37.37;7.60;;;;;;;6.79;100.00;102693.47;5000305;28;20173;-73
2022/01/17 08:51:19;;;;;;;32.33;6.40;;;;;;;7.40;100.00;102780.84;5000805;28;20666;-73
2022/01/17 08:53:45;;;;;;;25.07;5.63;;;;;;;6.81;100.00;102696.84;5001706;28;20308;-73
2022/01/17 08:56:10;;;;;;;33.50;6.40;;;;;;;7.38;100.00;102762.28;5001254;28;20476;-72
2022/01/17 08:58:36;;;;;;;31.33;7.20;;;;;;;7.28;100.00;102748.03;4987086;28;20185;-73
2022/01/17 09:01:02;;;;;;;31.60;6.57;;;;;;;7.06;100.00;102718.78;4999318;28;20196;-73
2022/01/17 09:03:27;;;;;;;30.83;5.93;;;;;;;7.39;100.00;102789.84;4999261;28;20201;-73
2022/01/17 09:05:53;;;;;;;27.83;6.40;;;;;;;7.32;100.00;102778.84;4997757;28;20546;-73
2022/01/17 09:08:19;;;;;;;41.60;6.77;;;;;;;6.84;100.00;102693.94;4998695;28;20192;-73
2022/01/17 09:10:45;;;;;;;29.80;6.90;;;;;;;7.44;100.00;102795.63;4998720;28;20425;-72
2022/01/17 09:13:11;;;;;;;43.87;7.60;;;;;;;6.92;100.00;102709.31;4999305;28;20216;-73
2022/01/17 09:15:51;;;;;;;42.93;8.20;;;;;;;6.84;100.00;102683.25;4997197;28;20488;-73
2022/01/17 09:18:19;;;;;;;32.10;7.13;;;;;;;7.48;100.00;102813.06;4999788;28;20710;-73
2022/01/17 09:20:45;;;;;;;34.77;7.20;;;;;;;6.93;100.00;102706.47;5000084;28;20435;-73
2022/01/17 09:25:54;;;;;;;43.27;8.90;;;;;;;7.37;100.00;102781.09;5013890;28;20221;-76
2022/01/17 09:28:20;;;;;;;52.10;9.53;;;;;;;7.32;100.00;102786.84;5017954;28;20522;-76
2022/01/17 09:33:46;;;;;;;33.47;7.47;;;;;;;7.08;100.00;102755.03;4994791;28;20428;-75
2022/01/17 09:36:14;;;;;;;39.00;7.27;;;;;;;7.52;100.00;102833.22;5019781;28;20462;-74
2022/01/17 09:38:40;;;;;;;35.67;7.43;;;;;;;7.61;100.00;102837.78;5020314;28;20425;-74
2022/01/17 09:41:06;;;;;;;33.57;6.23;;;;;;;7.31;100.00;102792.31;5020772;28;20427;-74
2022/01/17 09:43:34;;;;;;;35.90;7.20;;;;;;;7.42;100.00;102814.44;5019657;28;20455;-75
2022/01/17 09:46:00;;;;;;;49.80;7.87;;;;;;;6.88;100.00;102745.19;5017792;28;20498;-78
2022/01/17 09:48:35;;;;;;;47.43;7.63;;;;;;;7.56;100.00;102866.69;5020919;28;20424;-74
2022/01/17 09:51:16;;;;;;;50.00;7.10;;;;;;;7.40;100.00;102824.41;5019179;28;20268;-74
2022/01/17 09:53:45;;;;;;;39.17;7.00;;;;;;;7.63;100.00;102867.00;5017839;28;20443;-75
2022/01/17 09:56:15;;;;;;;38.67;7.07;;;;;;;7.39;100.00;102841.41;5018244;28;20970;-74
2022/01/17 09:58:41;;;;;;;35.63;7.90;;;;;;;6.30;100.00;102646.88;5018990;28;20919;-75
2022/01/17 10:01:10;;;;;;;39.87;6.90;;;;;;;7.69;100.00;102878.03;5018716;28;20502;-76
2022/01/17 10:03:52;;;;;;;35.53;7.63;;;;;;;7.45;100.00;102829.34;5004266;28;20443;-76
2022/01/17 10:07:07;;;;;;;42.73;8.83;;;;;;;7.73;100.00;102877.78;5001032;28;20435;-77
2022/01/17 10:09:58;;;;;;;47.63;9.10;;;;;;;7.53;100.00;102856.25;4979578;28;20459;-75
2022/01/17 10:12:30;;;;;;;45.60;8.23;;;;;;;7.12;100.00;102798.34;4999810;28;20440;-75
2022/01/17 10:15:21;;;;;;;;;;;;;;;;;;;;;
2022/01/17 10:18:22;;;;;;;28.60;7.20;;;;;;;7.74;100.00;102908.84;5019840;28;20423;-75
2022/01/17 10:21:18;;;;;;;43.03;8.13;;;;;;;7.73;100.00;102901.81;5017375;28;21134;-75
2022/01/17 10:24:32;;;;;;;50.47;9.70;;;;;;;7.74;100.00;102908.84;5020532;28;20467;-76
2022/01/17 10:27:17;;;;;;;40.47;6.27;;;;;;;6.97;100.00;102785.31;5018831;28;20828;-78
2022/01/17 10:35:52;;;;;;;46.23;7.33;;;;;;;7.72;100.00;102918.81;5019504;28;20459;-77
2022/01/17 10:38:50;;;;;;;45.57;8.70;;;;;;;7.74;100.00;102909.69;5019902;28;20658;-74
2022/01/17 10:41:35;;;;;;;41.73;7.37;;;;;;;7.37;100.00;102851.34;5024242;28;20807;-74
2022/01/17 10:44:07;;;;;;;40.97;8.20;;;;;;;7.47;100.00;102904.84;5023032;28;20441;-75
2022/01/17 10:47:21;;;;;;;47.20;8.93;;;;;;;7.96;100.00;102939.94;5022283;28;20425;-77
2022/01/17 10:50:12;;;;;;;34.73;8.50;;;;;;;7.57;100.00;102878.22;5023365;28;20551;-75
2022/01/17 10:52:46;;;;;;;36.33;8.73;;;;;;;7.83;100.00;102903.56;5020584;28;20929;-75
2022/01/17 10:56:07;;;;;;;36.80;8.13;;;;;;;7.96;100.00;102923.91;5003508;28;20458;-77
2022/01/17 10:59:36;;;;;;;;;;;;;;;;;;;;;
2022/01/17 11:05:21;;;;;;;46.53;8.57;;;;;;;8.06;100.00;102920.31;5006951;28;20459;-75
2022/01/17 11:10:54;;;;;;;46.40;8.20;;;;;;;8.24;100.00;102947.28;4994720;28;20450;-74
2022/01/17 11:13:23;;;;;;;40.83;7.77;;;;;;;8.29;100.00;102946.91;5021574;28;20427;-72
2022/01/17 11:16:23;;;;;;;;;;;;;;;;;;;;;
2022/01/17 11:22:39;;;;;;;48.10;9.03;;;;;;;8.22;100.00;102919.84;4963806;28;20922;-75
2022/01/17 11:25:16;;;;;;;50.73;8.93;;;;;;;7.95;100.00;102898.16;5002946;28;20471;-75
2022/01/17 11:28:30;;;;;;;41.27;8.33;;;;;;;8.28;100.00;102938.03;5020864;28;20415;-79
2022/01/17 11:31:18;;;;;;;42.30;7.47;;;;;;;8.40;100.00;102936.16;5022141;28;20480;-83
2022/01/17 11:34:18;;;;;;;50.93;8.93;;;;;;;8.51;100.00;102936.06;5021227;28;20451;-78
2022/01/17 11:40:33;;;;;;;46.57;9.20;;;;;;;8.62;100.00;102926.25;5018096;28;20419;-75
2022/01/17 11:46:59;;;;;;;46.87;9.43;;;;;;;8.90;100.00;102938.88;5023151;28;20455;-80
2022/01/17 11:50:59;;;;;;;38.07;8.13;;;;;;;8.68;100.00;102956.00;4963226;28;20870;-76
2022/01/17 11:57:33;;;;;;;46.43;10.60;;;;;;;8.62;100.00;102985.97;4941805;28;20530;-82
2022/01/17 12:00:45;;;;;;;38.17;8.43;;;;;;;8.56;100.00;102965.06;4962451;28;20437;-78
2022/01/17 12:03:53;;;;;;;49.73;9.57;;;;;;;8.53;100.00;102931.44;5020815;28;20426;-76
2022/01/17 12:06:57;;;;;;;44.40;9.20;;;;;;;8.69;100.00;102955.00;5021256;28;20407;-80
2022/01/17 12:10:09;;;;;;;46.93;10.07;;;;;;;8.98;100.00;102960.47;5021509;28;20435;-81
2022/01/17 12:13:45;;;;;;;53.43;8.70;;;;;;;8.85;100.00;102945.63;5001683;28;20943;-79
2022/01/17 12:16:44;;;;;;;34.87;7.17;;;;;;;8.96;100.00;102972.28;4963982;28;20465;-82
2022/01/17 12:19:45;;;;;;;31.63;6.50;;;;;;;9.29;100.00;102995.22;4965951;28;20433;-78
2022/01/17 12:23:17;;;;;;;35.50;8.80;;;;;;;8.80;100.00;102986.19;5006222;28;20437;-83
2022/01/17 12:26:27;;;;;;;44.50;8.57;;;;;;;8.94;100.00;102961.72;4986710;28;20546;-83
2022/01/17 12:29:02;;;;;;;37.53;6.90;;;;;;;8.30;100.00;102837.16;5017780;28;20443;-79